NR0A-4 Weather Reports


time (UTC)temp
C
wind
direction
speed
KPH
gust
KPH
rain 1hr
cm
rain 24hr
cm
rain mn
cm
humidity
%
barometer
mb
20171118061710 3 335 1.6 9.7 0.00 0.23 0.03 92 1004.6
20171118061210 3 47 0.0 11.3 0.00 0.23 0.03 92 1004.6
20171118060710 3 212 1.6 0.0 0.00 0.23 0.03 92 1004.5
20171118060045 3 343 8.0 11.3 0.00 0.20 0.00 92 1004.8
20171118055545 3 333 4.8 8.0 0.08 0.20 0.20 92 1004.6
20171118055045 3 325 4.8 16.1 0.05 0.18 0.18 92 1004.7
20171118054545 3 322 8.0 12.9 0.05 0.18 0.18 92 1004.7
20171118054045 3 334 4.8 20.9 0.08 0.18 0.18 92 1004.8
20171118053545 3 324 8.0 12.9 0.08 0.18 0.18 92 1005.2
20171118053045 3 285 3.2 4.8 0.05 0.15 0.15 92 1005.6
20171118052545 3 275 1.6 3.2 0.08 0.15 0.15 92 1005.6
20171118052045 3 244 0.0 0.0 0.05 0.13 0.13 92 1005.7
20171118051545 3 244 0.0 0.0 0.08 0.13 0.13 92 1005.8
20171118051045 3 23 0.0 0.0 0.08 0.13 0.13 92 1006.2
20171118050544 3 23 0.0 0.0 0.08 0.13 0.13 91 1005.5
20171118050044 3 23 0.0 0.0 0.08 0.13 0.13 91 1004.8
20171118045544 3 2 3.2 12.9 0.08 0.13 0.13 91 1004.4
20171118045043 3 345 1.6 8.0 0.08 0.13 0.13 91 1004.3
20171118044547 3 342 4.8 11.3 0.10 0.13 0.13 91 1003.8
20171118044047 3 9 8.0 14.5 0.08 0.10 0.10 91 1003.7
20171118043547 3 7 11.3 19.3 0.10 0.10 0.10 90 1003.9
20171118043047 3 358 3.2 11.3 0.10 0.10 0.10 90 1004.3
20171118042547 3 345 9.7 22.5 0.08 0.08 0.08 90 1004.4
20171118042047 3 318 8.0 9.7 0.08 0.08 0.08 89 1004.4
20171118041547 3 288 8.0 9.7 0.05 0.05 0.05 88 1004.5
20171118041047 3 352 8.0 12.9 0.05 0.05 0.05 88 1004.1
20171118040547 3 10 8.0 14.5 0.05 0.05 0.05 88 1003.7
20171118040047 3 340 1.6 9.7 0.05 0.05 0.05 88 1004.3
20171118035547 4 349 9.7 19.3 0.05 0.05 0.05 87 1004.0
20171118035047 4 353 4.8 16.1 0.05 0.05 0.05 86 1004.4
20171118034547 4 359 8.0 11.3 0.03 0.03 0.03 86 1004.4
20171118034047 4 304 3.2 4.8 0.03 0.03 0.03 85 1005.0
20171118033547 4 331 3.2 9.7 0.00 0.00 0.00 85 1005.2
20171118033046 4 308 4.8 8.0 0.00 0.00 0.00 85 1005.8
20171118032546 4 315 1.6 8.0 0.00 0.00 0.00 85 1005.0
20171118032046 4 310 4.8 14.5 0.00 0.00 0.00 85 1003.9
20171118031546 4 323 8.0 11.3 0.00 0.00 0.00 85 1003.6
20171118031046 4 300 3.2 9.7 0.00 0.00 0.00 85 1003.2
20171118030546 4 43 3.2 8.0 0.00 0.00 0.00 84 1002.9
20171118030046 4 356 8.0 14.5 0.00 0.00 0.00 84 1002.9
20171118025546 5 11 8.0 14.5 0.00 0.00 0.00 84 1003.2
20171118025046 4 318 3.2 11.3 0.00 0.00 0.00 84 1003.5
20171118024546 5 348 8.0 20.9 0.00 0.00 0.00 84 1003.2
20171118024046 5 345 8.0 14.5 0.00 0.00 0.00 84 1003.3
20171118023546 5 345 4.8 12.9 0.00 0.00 0.00 84 1003.2
20171118023045 5 343 4.8 9.7 0.00 0.00 0.00 83 1003.3
20171118022545 5 1 8.0 11.3 0.00 0.00 0.00 83 1003.2
20171118022044 5 348 8.0 11.3 0.00 0.00 0.00 82 1003.3
20171118021544 5 307 8.0 9.7 0.00 0.00 0.00 81 1003.4
20171118021044 5 289 4.8 4.8 0.00 0.00 0.00 80 1003.4
20171118020544 5 297 3.2 11.3 0.00 0.00 0.00 79 1003.6
20171118020044 5 307 1.6 8.0 0.00 0.00 0.00 78 1003.3
20171118015544 5 306 0.0 3.2 0.00 0.00 0.00 78 1003.3
20171118015044 5 305 4.8 8.0 0.00 0.00 0.00 78 1003.3
20171118014544 5 316 4.8 9.7 0.00 0.00 0.00 78 1003.3
20171118014044 5 328 3.2 4.8 0.00 0.00 0.00 78 1003.0
20171118013544 5 336 4.8 11.3 0.00 0.00 0.00 77 1002.8
20171118013044 5 334 3.2 8.0 0.00 0.00 0.00 77 1002.7
20171118012544 5 331 4.8 14.5 0.00 0.00 0.00 77 1002.2
20171118012044 5 334 4.8 16.1 0.00 0.00 0.00 76 1001.8
20171118011544 5 332 3.2 19.3 0.00 0.00 0.00 76 1001.7
20171118011045 5 338 8.0 16.1 0.00 0.00 0.00 75 1002.2
20171118010544 5 313 3.2 9.7 0.00 0.00 0.00 75 1002.2
20171118010044 5 308 3.2 3.2 0.00 0.00 0.00 75 1002.5
20171118005544 5 325 4.8 14.5 0.00 0.00 0.00 75 1002.6
20171118005043 5 333 3.2 14.5 0.00 0.00 0.00 74 1002.5
20171118004543 5 318 9.7 12.9 0.00 0.00 0.00 74 1002.5
20171118004043 6 327 4.8 14.5 0.00 0.00 0.00 74 1002.5
20171118003543 6 327 3.2 8.0 0.00 0.00 0.00 74 1002.2
20171118003043 6 347 4.8 9.7 0.00 0.00 0.00 73 1002.0
20171118002543 6 336 3.2 8.0 0.00 0.00 0.00 73 1001.8
20171118002043 6 356 8.0 16.1 0.00 0.00 0.00 72 1001.7
20171118001543 6 316 4.8 11.3 0.00 0.00 0.00 72 1001.6
20171118001043 6 13 8.0 9.7 0.00 0.00 0.00 71 1001.5
20171118000545 6 99 4.8 8.0 0.00 0.00 0.00 70 1001.5
20171118000043 6 256 8.0 16.1 0.00 0.00 0.00 70 1001.5
20171117235543 6 340 8.0 20.9 0.00 0.00 0.00 69 1001.6
20171117235043 7 316 8.0 14.5 0.00 0.00 0.00 69 1001.5
20171117234548 7 345 8.0 16.1 0.00 0.00 0.00 69 1001.7
20171117234045 7 293 3.2 4.8 0.00 0.00 0.00 69 1001.9
20171117233546 7 313 3.2 12.9 0.00 0.00 0.00 69 1002.1
20171117233045 7 343 4.8 12.9 0.00 0.00 0.00 70 1002.1
20171117232545 7 307 3.2 9.7 0.00 0.00 0.00 70 1002.1
20171117232045 7 327 8.0 11.3 0.00 0.00 0.00 70 1001.9
20171117231545 7 324 4.8 8.0 0.00 0.00 0.00 69 1001.6
20171117231045 7 338 3.2 14.5 0.00 0.00 0.00 69 1001.5
20171117230545 7 332 1.6 16.1 0.00 0.00 0.00 68 1001.4
20171117230045 7 311 4.8 12.9 0.00 0.00 0.00 68 1001.2
20171117225545 7 289 3.2 14.5 0.00 0.00 0.00 68 1001.2
20171117225045 7 317 4.8 12.9 0.00 0.00 0.00 67 1001.1
20171117224545 7 318 4.8 12.9 0.00 0.00 0.00 67 1001.0
20171117224045 7 278 3.2 14.5 0.00 0.00 0.00 66 1000.9
20171117223544 7 321 3.2 12.9 0.00 0.00 0.00 66 1000.7
20171117223045 7 323 4.8 14.5 0.00 0.00 0.00 65 1000.8
20171117222544 8 331 3.2 4.8 0.00 0.00 0.00 65 1000.5
20171117222432 8 309 4.8 11.3 0.00 0.00 0.00 65 1000.5
20171117222044 8 326 1.6 8.0 0.00 0.00 0.00 65 1000.5
20171117221544 8 329 3.2 8.0 0.00 0.00 0.00 65 1000.5
20171117221432 7 292 4.8 14.5 0.00 0.00 0.00 65 1000.4
20171117221044 7 321 4.8 14.5 0.00 0.00 0.00 65 1000.4
20171117220544 8 347 3.2 12.9 0.00 0.00 0.00 65 1000.4
20171117220432 8 353 0.0 3.2 0.00 0.00 0.00 65 1000.3
20171117220044 8 311 3.2 11.3 0.00 0.00 0.00 64 1000.5
20171117215544 8 293 0.0 3.2 0.00 0.00 0.00 64 1000.9
20171117215432 8 268 0.0 0.0 0.00 0.00 0.00 64 1000.9
20171117215044 8 303 3.2 9.7 0.00 0.00 0.00 63 1000.9
20171117214932 8 313 1.6 9.7 0.00 0.00 0.00 63 1000.9
20171117214544 8 309 1.6 3.2 0.00 0.00 0.00 62 1000.9
20171117214044 8 247 1.6 3.2 0.00 0.00 0.00 62 1000.7
20171117213543 8 315 4.8 4.8 0.00 0.00 0.00 61 1000.7
20171117213047 8 323 4.8 11.3 0.00 0.00 0.00 60 1000.5
20171117212547 8 343 1.6 4.8 0.00 0.00 0.00 61 1000.5
20171117212047 8 313 3.2 4.8 0.00 0.00 0.00 61 1000.3
20171117211547 8 278 1.6 8.0 0.00 0.00 0.00 61 1000.0
20171117211047 8 300 1.6 1.6 0.00 0.00 0.00 60 999.8
20171117210547 8 272 3.2 11.3 0.00 0.00 0.00 60 999.7
20171117210429 8 308 3.2 8.0 0.00 0.00 0.00 60 999.7
20171117210046 8 323 1.6 4.8 0.00 0.00 0.00 60 999.8
20171117205545 8 319 3.2 4.8 0.00 0.00 0.00 62 999.9
20171117205045 7 335 3.2 12.9 0.00 0.00 0.00 62 1000.0
20171117204545 7 326 3.2 14.5 0.00 0.00 0.00 62 1000.0
20171117204432 7 336 3.2 11.3 0.00 0.00 0.00 62 999.9
20171117204045 8 325 3.2 16.1 0.00 0.00 0.00 61 1000.0
20171117203545 8 310 3.2 11.3 0.00 0.00 0.00 61 1000.1
20171117203432 8 343 4.8 11.3 0.00 0.00 0.00 60 1000.2
20171117203045 8 324 4.8 8.0 0.00 0.00 0.00 60 1000.4
20171117202545 8 315 1.6 12.9 0.00 0.00 0.00 60 1000.3
20171117202044 8 319 8.0 16.1 0.00 0.00 0.00 59 1000.4
20171117201544 8 270 0.0 3.2 0.00 0.00 0.00 60 1000.5
20171117201044 8 329 3.2 8.0 0.00 0.00 0.00 59 1000.7
20171117200544 8 316 0.0 8.0 0.00 0.00 0.00 58 1001.0
20171117200044 9 290 3.2 3.2 0.00 0.00 0.00 58 1001.0
20171117195544 9 319 1.6 4.8 0.00 0.00 0.00 59 1000.9
20171117195044 8 296 1.6 3.2 0.00 0.00 0.00 59 1001.0
20171117194544 9 285 1.6 4.8 0.00 0.00 0.00 59 1001.2
20171117194044 9 222 0.0 8.0 0.00 0.00 0.00 59 1001.0
20171117193544 9 305 1.6 8.0 0.00 0.00 0.00 58 1000.9
20171117193044 9 310 3.2 8.0 0.00 0.00 0.00 58 1000.9
20171117192931 9 0 0.0 3.2 0.00 0.00 0.00 59 1000.9
20171117192544 8 317 3.2 9.7 0.00 0.00 0.00 59 1000.9
20171117192431 8 340 1.6 11.3 0.00 0.00 0.00 59 1000.9
20171117192044 8 311 1.6 3.2 0.00 0.00 0.00 60 1000.9
20171117191544 8 317 3.2 8.0 0.00 0.00 0.00 59 1000.9
20171117191431 9 318 3.2 9.7 0.00 0.00 0.00 59 1000.9
20171117191044 9 305 3.2 9.7 0.00 0.00 0.00 58 1000.7
20171117190544 9 317 4.8 11.3 0.00 0.00 0.00 58 1000.5
20171117190044 9 309 1.6 1.6 0.00 0.00 0.00 58 1000.5
20171117185543 9 311 8.0 14.5 0.00 0.00 0.00 60 1000.7
20171117185044 9 309 3.2 8.0 0.00 0.00 0.00 59 1000.7
20171117184931 9 314 4.8 9.7 0.00 0.00 0.00 59 1000.8
20171117184529 9 316 4.8 20.9 0.00 0.00 0.00 58 1000.9
20171117184431 9 289 4.8 9.7 0.00 0.00 0.00 58 1000.9
20171117184029 10 306 8.0 9.7 0.00 0.00 0.00 57 1000.9
20171117183528 10 309 8.0 11.3 0.00 0.00 0.00 57 1000.9
20171117183027 11 315 8.0 11.3 0.00 0.00 0.00 55 1001.0
20171117182527 11 309 4.8 9.7 0.00 0.00 0.00 56 1001.1
20171117182027 12 306 3.2 9.7 0.00 0.00 0.00 57 1001.2
20171117181526 12 271 0.0 3.2 0.00 0.00 0.00 59 1001.1
20171117181026 12 250 3.2 11.3 0.00 0.00 0.00 61 1001.0
20171117180526 11 260 3.2 14.5 0.00 0.00 0.00 64 1000.8
20171117180031 11 249 3.2 16.1 0.00 0.00 0.00 66 1000.9
20171117175531 11 259 4.8 14.5 0.00 0.00 0.00 67 1000.9
20171117175031 11 250 9.7 16.1 0.00 0.00 0.00 70 1000.8
20171117174531 10 260 8.0 11.3 0.00 0.00 0.00 71 1001.0
20171117174031 11 248 9.7 11.3 0.00 0.00 0.00 70 1001.1
20171117173531 11 247 4.8 19.3 0.00 0.00 0.00 70 1001.0
20171117173031 11 255 4.8 16.1 0.00 0.00 0.00 70 1001.1
20171117172531 11 252 4.8 11.3 0.00 0.00 0.00 71 1001.2
20171117172031 11 246 8.0 19.3 0.00 0.00 0.00 72 1001.3
20171117171531 10 252 3.2 9.7 0.00 0.00 0.00 74 1001.5
20171117171031 11 245 8.0 19.3 0.00 0.00 0.00 74 1001.5
20171117170531 11 246 4.8 12.9 0.00 0.00 0.00 73 1001.5
20171117170031 11 261 4.8 14.5 0.00 0.00 0.00 74 1001.5
20171117165531 11 249 8.0 14.5 0.00 0.00 0.00 76 1001.4
20171117165031 10 255 4.8 14.5 0.00 0.00 0.00 77 1001.4
20171117164531 10 247 11.3 16.1 0.00 0.00 0.00 78 1001.4
20171117164031 10 250 9.7 11.3 0.00 0.00 0.00 79 1001.6
20171117163531 10 243 9.7 16.1 0.00 0.00 0.00 79 1001.4
20171117163031 10 242 8.0 14.5 0.00 0.00 0.00 79 1001.5
20171117162531 10 255 8.0 9.7 0.00 0.00 0.00 79 1001.4
20171117162031 10 243 9.7 12.9 0.00 0.00 0.00 79 1001.3
20171117161531 10 251 4.8 9.7 0.00 0.00 0.00 80 1001.4
20171117161031 10 254 8.0 11.3 0.00 0.00 0.00 80 1001.4
20171117160530 10 254 8.0 12.9 0.00 0.00 0.00 80 1001.3
20171117160030 11 251 8.0 14.5 0.00 0.00 0.00 80 1001.5
20171117155529 10 242 4.8 11.3 0.00 0.00 0.00 81 1001.7
20171117155029 10 249 3.2 3.2 0.00 0.00 0.00 81 1001.8
20171117154529 10 249 3.2 3.2 0.00 0.00 0.00 83 1001.8
20171117154029 10 209 8.0 9.7 0.00 0.00 0.00 83 1001.7
20171117153529 10 236 4.8 11.3 0.00 0.00 0.00 84 1001.6
20171117153029 9 203 8.0 11.3 0.00 0.00 0.00 84 1001.6
20171117152529 8 201 3.2 3.2 0.00 0.00 0.00 85 1001.7
20171117152029 8 197 4.8 9.7 0.00 0.00 0.00 85 1001.8
20171117151530 8 205 4.8 8.0 0.00 0.00 0.00 85 1001.8
20171117151029 8 220 3.2 4.8 0.00 0.00 0.00 85 1001.9
20171117150529 8 221 0.0 8.0 0.00 0.00 0.00 85 1001.8
20171117150028 8 202 3.2 8.0 0.00 0.00 0.00 85 1001.8
20171117145529 8 195 4.8 8.0 0.00 0.00 0.00 85 1002.0
20171117145029 8 202 4.8 11.3 0.00 0.00 0.00 85 1001.9
20171117144528 8 223 4.8 4.8 0.00 0.00 0.00 85 1002.0
20171117144028 8 202 4.8 8.0 0.00 0.00 0.00 85 1001.9
20171117143528 8 94 0.0 4.8 0.00 0.00 0.00 85 1002.0
20171117143028 8 147 3.2 3.2 0.00 0.00 0.00 85 1002.0
20171117142528 8 139 3.2 3.2 0.00 0.00 0.00 86 1002.0
20171117142028 8 60 1.6 3.2 0.00 0.00 0.00 86 1001.8
20171117141528 8 168 3.2 4.8 0.00 0.00 0.00 86 1002.0
20171117141028 8 156 3.2 4.8 0.00 0.00 0.00 86 1002.2
20171117140528 8 166 3.2 3.2 0.00 0.00 0.00 86 1002.1
20171117140028 8 167 3.2 3.2 0.00 0.00 0.00 86 1002.0
20171117135528 8 177 4.8 8.0 0.00 0.00 0.00 86 1002.1
20171117135028 8 172 4.8 8.0 0.00 0.00 0.00 86 1002.1
20171117134528 8 152 3.2 4.8 0.00 0.00 0.00 86 1002.3
20171117134028 8 173 4.8 8.0 0.00 0.00 0.00 86 1002.3
20171117133528 8 160 4.8 9.7 0.00 0.00 0.00 85 1002.5
20171117133028 8 136 3.2 8.0 0.00 0.00 0.00 85 1002.6
20171117132528 8 183 3.2 8.0 0.00 0.00 0.00 85 1002.7
20171117132028 8 162 3.2 4.8 0.00 0.00 0.00 85 1002.6
20171117131528 8 205 3.2 8.0 0.00 0.00 0.00 85 1002.7
20171117131028 8 208 3.2 4.8 0.00 0.00 0.00 85 1002.8
20171117130528 8 221 3.2 4.8 0.00 0.00 0.00 85 1002.9
20171117130027 8 198 4.8 8.0 0.00 0.00 0.00 85 1002.8
20171117125527 8 201 4.8 8.0 0.00 0.00 0.00 85 1002.7
20171117125027 8 206 8.0 9.7 0.00 0.00 0.00 84 1002.6
20171117124527 8 221 4.8 8.0 0.00 0.00 0.00 84 1002.6
20171117124027 8 221 3.2 4.8 0.00 0.00 0.00 84 1002.9
20171117123527 8 230 4.8 4.8 0.00 0.00 0.00 84 1002.8
20171117123027 8 206 8.0 8.0 0.00 0.00 0.00 84 1002.9
20171117122527 8 195 4.8 8.0 0.00 0.00 0.00 84 1002.8
20171117122027 8 204 8.0 11.3 0.00 0.00 0.00 84 1002.9
20171117121527 8 202 8.0 11.3 0.00 0.00 0.00 83 1002.6
20171117121027 8 194 8.0 11.3 0.00 0.00 0.00 83 1002.6
20171117120527 8 183 3.2 4.8 0.00 0.00 0.00 83 1002.6
20171117120027 8 197 8.0 8.0 0.00 0.00 0.00 83 1002.8
20171117115527 8 201 4.8 11.3 0.00 0.00 0.00 83 1002.6
20171117115027 8 188 8.0 14.5 0.00 0.00 0.00 83 1002.3
20171117114527 8 176 9.7 12.9 0.00 0.00 0.00 83 1002.3
20171117114027 8 181 9.7 11.3 0.00 0.00 0.00 83 1002.3
20171117113527 8 183 8.0 11.3 0.00 0.00 0.00 82 1002.3
20171117113027 8 191 8.0 12.9 0.00 0.00 0.00 82 1002.3
20171117112529 8 200 11.3 14.5 0.00 0.00 0.00 82 1002.5
20171117112027 8 176 8.0 12.9 0.00 0.00 0.00 82 1002.5
20171117111527 8 187 9.7 14.5 0.00 0.00 0.00 82 1002.5
20171117111027 8 167 8.0 14.5 0.00 0.00 0.00 82 1002.2
20171117110527 8 149 9.7 11.3 0.00 0.00 0.00 82 1002.2
20171117110027 8 183 9.7 11.3 0.00 0.00 0.00 82 1002.2
20171117105527 8 193 11.3 19.3 0.00 0.00 0.00 83 1002.3
20171117105027 8 181 9.7 16.1 0.00 0.00 0.00 83 1002.5
20171117104527 8 173 11.3 29.0 0.00 0.00 0.00 83 1002.3
20171117104027 7 204 11.3 14.5 0.00 0.00 0.00 83 1002.5
20171117103527 7 182 9.7 16.1 0.00 0.00 0.00 82 1002.5
20171117103027 7 191 14.5 20.9 0.00 0.00 0.00 82 1002.5
20171117102527 7 180 9.7 14.5 0.00 0.00 0.00 82 1002.6
20171117102027 7 173 9.7 22.5 0.00 0.00 0.00 82 1002.6
20171117101527 7 192 9.7 16.1 0.00 0.00 0.00 82 1002.8
20171117101031 7 174 11.3 19.3 0.00 0.00 0.00 82 1002.8
20171117100532 7 183 12.9 25.7 0.00 0.00 0.00 82 1002.8
20171117100031 7 183 11.3 16.1 0.00 0.00 0.00 81 1002.7
20171117095531 7 161 14.5 25.7 0.00 0.00 0.00 81 1002.8
20171117095031 7 160 12.9 24.1 0.00 0.00 0.00 80 1002.9
20171117094530 7 179 14.5 25.7 0.00 0.00 0.00 80 1003.0
20171117094030 7 190 11.3 19.3 0.00 0.00 0.00 78 1003.2
20171117093530 6 186 12.9 16.1 0.00 0.00 0.00 78 1003.2
20171117093030 6 171 12.9 19.3 0.00 0.00 0.00 78 1003.4
20171117092530 6 175 12.9 24.1 0.00 0.00 0.00 77 1003.4
20171117092030 6 176 12.9 19.3 0.00 0.00 0.00 76 1003.5
20171117091530 6 182 12.9 19.3 0.00 0.00 0.00 75 1003.5
20171117091030 6 160 14.5 24.1 0.00 0.00 0.00 75 1003.7
20171117090530 6 171 11.3 20.9 0.00 0.00 0.00 74 1003.9
20171117090030 6 189 14.5 24.1 0.00 0.00 0.00 74 1003.9
20171117085530 6 193 12.9 16.1 0.00 0.00 0.00 74 1003.9
20171117085030 6 160 12.9 25.7 0.00 0.00 0.00 74 1003.9
20171117084530 6 165 14.5 24.1 0.00 0.00 0.00 73 1004.0
20171117084030 6 166 14.5 24.1 0.00 0.00 0.00 73 1003.9
20171117083530 6 176 14.5 20.9 0.00 0.00 0.00 72 1004.0
20171117083030 6 158 20.9 25.7 0.00 0.00 0.00 72 1003.9
20171117082530 6 167 14.5 22.5 0.00 0.00 0.00 72 1004.3
20171117082030 6 159 12.9 20.9 0.00 0.00 0.00 72 1004.4
20171117081529 6 171 11.3 19.3 0.00 0.00 0.00 72 1004.5
20171117081029 6 165 11.3 19.3 0.00 0.00 0.00 71 1004.6
20171117080529 6 168 14.5 24.1 0.00 0.00 0.00 71 1004.3
20171117080029 6 149 16.1 24.1 0.00 0.00 0.00 71 1004.3
20171117075529 6 172 16.1 22.5 0.00 0.00 0.00 71 1004.5
20171117075029 6 167 20.9 33.8 0.00 0.00 0.00 71 1004.7
20171117074529 6 163 11.3 22.5 0.00 0.00 0.00 70 1004.9
20171117074029 6 158 14.5 29.0 0.00 0.00 0.00 70 1005.0
20171117073529 6 176 12.9 16.1 0.00 0.00 0.00 69 1004.9
20171117073029 6 166 14.5 25.7 0.00 0.00 0.00 69 1004.9
20171117072529 6 169 14.5 22.5 0.00 0.00 0.00 68 1005.0
20171117072029 6 171 14.5 22.5 0.00 0.00 0.00 68 1005.1
20171117071529 6 185 12.9 14.5 0.00 0.00 0.00 67 1005.1
20171117071029 6 153 12.9 19.3 0.00 0.00 0.00 67 1005.0
20171117070528 6 161 14.5 25.7 0.00 0.00 0.00 66 1005.1
20171117070028 6 172 14.5 25.7 0.00 0.00 0.00 65 1005.3
20171117065528 6 161 12.9 20.9 0.00 0.00 0.00 65 1005.3
20171117065028 6 166 14.5 27.4 0.00 0.00 0.00 64 1005.3
20171117064528 6 164 16.1 24.1 0.00 0.00 0.00 64 1005.4
20171117064028 6 162 16.1 22.5 0.00 0.00 0.00 63 1005.4
20171117063528 6 161 14.5 20.9 0.00 0.00 0.00 62 1005.5
20171117063028 6 159 16.1 27.4 0.00 0.00 0.00 62 1005.6
20171117062528 6 165 14.5 24.1 0.00 0.00 0.00 62 1005.6